createdAt,value
2022-09-18T00:01:32.477Z,101576.09
2022-09-18T00:04:03.499Z,101565.63
2022-09-18T00:06:35.178Z,101561.88
2022-09-18T00:09:06.010Z,101562.81
2022-09-18T00:11:44.352Z,101565.53
2022-09-18T00:14:19.035Z,101560.16
2022-09-18T00:16:46.196Z,101561.94
2022-09-18T00:19:13.887Z,101560.97
2022-09-18T00:21:47.570Z,101560.88
2022-09-18T00:24:17.737Z,101559.91
2022-09-18T00:26:46.428Z,101563.84
2022-09-18T00:29:15.212Z,101563.75
2022-09-18T00:31:42.563Z,101564.47
2022-09-18T00:34:14.541Z,101562.56
2022-09-18T00:36:42.513Z,101560.72
2022-09-18T00:39:10.795Z,101566.91
2022-09-18T00:41:41.968Z,101560.69
2022-09-18T00:44:42.386Z,101561.44
2022-09-18T00:47:12.013Z,101558.75
2022-09-18T00:49:44.747Z,101565.00
2022-09-18T00:52:14.093Z,101572.19
2022-09-18T00:54:50.831Z,101578.50
2022-09-18T00:57:28.220Z,101584.72
2022-09-18T00:59:55.664Z,101587.44
2022-09-18T01:02:23.051Z,101576.66
2022-09-18T01:04:51.281Z,101590.06
2022-09-18T01:07:58.298Z,101585.56
2022-09-18T01:10:31.143Z,101576.56
2022-09-18T01:13:54.386Z,101579.25
2022-09-18T01:16:42.200Z,101573.03
2022-09-18T01:19:49.850Z,101569.72
2022-09-18T01:22:46.741Z,101571.56
2022-09-18T01:25:43.899Z,101575.06
2022-09-18T01:28:36.997Z,101565.41
2022-09-18T01:31:12.827Z,101552.69
2022-09-18T01:33:58.418Z,101564.13
2022-09-18T01:36:30.296Z,101560.03
2022-09-18T01:39:38.992Z,101579.56
2022-09-18T01:42:08.441Z,101574.38
2022-09-18T01:44:37.070Z,101562.69
2022-09-18T01:47:11.128Z,101564.28
2022-09-18T01:49:45.919Z,101569.88
2022-09-18T01:52:28.539Z,101574.38
2022-09-18T01:55:00.563Z,101563.75
2022-09-18T01:57:44.775Z,101564.63
2022-09-18T02:00:14.009Z,101560.03
2022-09-18T02:02:55.260Z,101561.66
2022-09-18T02:05:39.708Z,101563.25
2022-09-18T02:08:30.552Z,101556.09
2022-09-18T02:11:09.953Z,101562.25
2022-09-18T02:13:48.725Z,101549.75
2022-09-18T02:16:33.685Z,101553.31
2022-09-18T02:19:18.554Z,101552.41
2022-09-18T02:21:48.241Z,101549.72
2022-09-18T02:24:20.416Z,101541.72
2022-09-18T02:26:50.776Z,101546.16
2022-09-18T02:29:20.172Z,101552.38
2022-09-18T02:31:49.226Z,101553.31
2022-09-18T02:34:17.701Z,101555.94
2022-09-18T02:37:06.274Z,101555.91
2022-09-18T02:40:30.949Z,101554.13
2022-09-18T02:43:26.770Z,101546.16
2022-09-18T02:46:52.444Z,101539.94
2022-09-18T02:49:44.642Z,101534.59
2022-09-18T02:52:34.066Z,101539.03
2022-09-18T02:55:21.536Z,101543.47
2022-09-18T02:58:03.059Z,101527.47
2022-09-18T03:00:32.074Z,101527.47
2022-09-18T03:02:59.967Z,101540.81
2022-09-18T03:05:27.566Z,101531.00
2022-09-18T03:07:54.678Z,101523.84
2022-09-18T03:10:21.735Z,101525.63
2022-09-18T03:12:48.757Z,101516.75
2022-09-18T03:15:15.932Z,101518.50
2022-09-18T03:17:42.880Z,101513.16
2022-09-18T03:20:10.162Z,101515.88
2022-09-18T03:22:37.319Z,101512.31
2022-09-18T03:25:04.959Z,101512.31
2022-09-18T03:27:32.105Z,101520.31
2022-09-18T03:29:59.116Z,101521.22
2022-09-18T03:32:26.162Z,101519.44
2022-09-18T03:34:53.127Z,101514.97
2022-09-18T03:37:20.127Z,101516.75
2022-09-18T03:39:47.166Z,101514.06
2022-09-18T03:42:14.991Z,101521.22
2022-09-18T03:44:41.989Z,101522.09
2022-09-18T03:47:11.736Z,101513.19
2022-09-18T03:49:38.700Z,101507.00
2022-09-18T03:52:05.702Z,101503.41
2022-09-18T03:54:32.709Z,101506.09
2022-09-18T03:56:59.774Z,101496.31
2022-09-18T03:59:26.770Z,101500.75
2022-09-18T04:01:53.789Z,101501.66
2022-09-18T04:04:20.828Z,101497.22
2022-09-18T04:06:47.856Z,101496.31
2022-09-18T04:09:16.549Z,101492.72
2022-09-18T04:11:44.508Z,101485.63
2022-09-18T04:14:11.782Z,101478.53
2022-09-18T04:16:39.302Z,101490.97
2022-09-18T04:19:06.431Z,101486.56
2022-09-18T04:21:33.951Z,101493.69
2022-09-18T04:24:01.145Z,101488.34
2022-09-18T04:26:28.276Z,101476.75
2022-09-18T04:28:55.314Z,101482.16
2022-09-18T04:31:22.321Z,101476.91
2022-09-18T04:33:49.833Z,101482.19
2022-09-18T04:36:16.822Z,101489.41
2022-09-18T04:38:43.923Z,101491.13
2022-09-18T04:41:10.929Z,101484.91
2022-09-18T04:43:37.920Z,101482.22
2022-09-18T04:46:05.013Z,101482.25
2022-09-18T04:48:32.073Z,101487.56
2022-09-18T04:50:59.096Z,101476.91
2022-09-18T04:53:27.629Z,101484.91
2022-09-18T04:55:54.665Z,101477.91
2022-09-18T04:58:21.660Z,101482.34
2022-09-18T05:00:50.706Z,101473.38
2022-09-18T05:03:19.417Z,101481.38
2022-09-18T05:05:46.438Z,101476.91
2022-09-18T05:08:13.477Z,101482.22
2022-09-18T05:10:41.804Z,101480.44
2022-09-18T05:13:09.123Z,101468.00
2022-09-18T05:15:36.288Z,101478.66
2022-09-18T05:18:11.263Z,101481.44
2022-09-18T05:20:39.086Z,101482.34
2022-09-18T05:23:07.148Z,101487.75
2022-09-18T05:25:34.158Z,101474.44
2022-09-18T05:28:03.271Z,101479.66
2022-09-18T05:30:31.693Z,101478.75
2022-09-18T05:33:07.334Z,101479.72
2022-09-18T05:35:36.132Z,101483.25
2022-09-18T05:38:04.206Z,101481.38
2022-09-18T05:40:36.883Z,101483.25
2022-09-18T05:43:05.741Z,101486.78
2022-09-18T05:45:33.488Z,101486.75
2022-09-18T05:48:05.964Z,101485.81
2022-09-18T05:50:34.800Z,101494.81
2022-09-18T05:53:08.047Z,101498.38
2022-09-18T05:55:35.359Z,101486.75
2022-09-18T05:58:06.412Z,101472.50
2022-09-18T06:00:36.307Z,101476.13
2022-09-18T06:03:11.693Z,101485.00
2022-09-18T06:05:39.569Z,101486.72
2022-09-18T06:08:11.230Z,101485.88
2022-09-18T06:10:40.663Z,101486.75
2022-09-18T06:13:15.604Z,101488.59
2022-09-18T06:15:52.389Z,101478.81
2022-09-18T06:18:19.886Z,101484.09
2022-09-18T06:20:55.227Z,101485.88
2022-09-18T06:23:24.628Z,101477.00
2022-09-18T06:26:07.323Z,101501.03
2022-09-18T06:28:37.443Z,101493.03
2022-09-18T06:31:05.910Z,101503.69
2022-09-18T06:33:35.481Z,101494.75
2022-09-18T06:36:08.230Z,101506.34
2022-09-18T06:38:35.249Z,101498.38
2022-09-18T06:41:02.223Z,101505.47
2022-09-18T06:43:29.239Z,101502.88
2022-09-18T06:45:57.896Z,101507.25
2022-09-18T06:48:25.551Z,101491.53
2022-09-18T06:50:58.404Z,101484.41
2022-09-18T06:53:26.432Z,101491.78
2022-09-18T06:55:59.111Z,101485.44
2022-09-18T06:58:26.216Z,101484.41
2022-09-18T07:00:53.319Z,101479.00
2022-09-18T07:03:20.455Z,101477.16
2022-09-18T07:05:47.459Z,101477.34
2022-09-18T07:08:14.623Z,101480.09
2022-09-18T07:10:41.840Z,101481.88
2022-09-18T07:13:09.495Z,101470.31
2022-09-18T07:15:36.608Z,101483.53
2022-09-18T07:18:05.944Z,101480.13
2022-09-18T07:20:33.244Z,101482.72
2022-09-18T07:23:02.039Z,101477.44
2022-09-18T07:25:32.234Z,101472.88
2022-09-18T07:28:10.052Z,101474.66
2022-09-18T07:30:38.288Z,101478.06
2022-09-18T07:33:08.411Z,101485.22
2022-09-18T07:35:36.377Z,101471.78
2022-09-18T07:38:09.241Z,101470.00
2022-09-18T07:40:36.736Z,101471.75
2022-09-18T07:43:08.126Z,101470.97
2022-09-18T07:45:35.942Z,101464.75
2022-09-18T07:48:07.431Z,101458.50
2022-09-18T07:50:34.935Z,101470.97
2022-09-18T07:53:05.278Z,101463.75
2022-09-18T07:55:35.921Z,101469.06
2022-09-18T07:58:06.718Z,101462.94
2022-09-18T08:00:37.707Z,101460.25
2022-09-18T08:03:11.511Z,101451.47
2022-09-18T08:05:40.202Z,101452.34
2022-09-18T08:08:12.918Z,101466.59
2022-09-18T08:10:43.532Z,101460.38
2022-09-18T08:13:11.240Z,101461.16
2022-09-18T08:15:41.338Z,101458.50
2022-09-18T08:18:11.441Z,101459.41
2022-09-18T08:20:38.838Z,101469.25
2022-09-18T08:23:09.308Z,101473.69
2022-09-18T08:25:37.283Z,101472.81
2022-09-18T08:28:06.636Z,101474.72
2022-09-18T08:30:34.441Z,101464.88
2022-09-18T08:33:05.613Z,101479.97
2022-09-18T08:35:33.572Z,101469.28
2022-09-18T08:38:01.896Z,101472.81
2022-09-18T08:41:05.483Z,101479.06
2022-09-18T08:43:47.427Z,101473.69
2022-09-18T08:46:37.831Z,101471.84
2022-09-18T08:49:38.807Z,101475.47
2022-09-18T08:52:17.750Z,101472.00
2022-09-18T08:54:53.589Z,101472.03
2022-09-18T08:57:38.968Z,101472.81
2022-09-18T09:00:17.377Z,101473.78
2022-09-18T09:02:52.124Z,101472.06
2022-09-18T09:05:25.835Z,101472.09
2022-09-18T09:08:39.768Z,101462.31
2022-09-18T09:11:43.939Z,101484.56
2022-09-18T09:14:55.504Z,101477.38
2022-09-18T09:17:53.035Z,101469.38
2022-09-18T09:20:45.472Z,101459.59
2022-09-18T09:23:49.192Z,101465.84
2022-09-18T09:26:25.292Z,101459.63
2022-09-18T09:29:03.418Z,101481.84
2022-09-18T09:31:39.657Z,101477.44
2022-09-18T09:34:27.136Z,101473.00
2022-09-18T09:36:57.459Z,101488.06
2022-09-18T09:40:00.415Z,101497.00
2022-09-18T09:42:38.769Z,101500.47
2022-09-18T09:45:29.568Z,101504.06
2022-09-18T09:48:04.415Z,101494.22
2022-09-18T09:50:58.447Z,101492.34
2022-09-18T09:53:26.883Z,101494.25
2022-09-18T09:56:30.582Z,101492.44
2022-09-18T09:59:27.939Z,101496.03
2022-09-18T10:02:22.570Z,101493.44
2022-09-18T10:05:13.965Z,101484.50
2022-09-18T10:08:15.585Z,101484.41
2022-09-18T10:11:00.811Z,101492.59
2022-09-18T10:13:49.177Z,101490.72
2022-09-18T10:16:26.504Z,101486.59
2022-09-18T10:18:53.593Z,101491.91
2022-09-18T10:21:27.168Z,101493.56
2022-09-18T10:24:20.399Z,101491.56
2022-09-18T10:27:02.120Z,101491.56
2022-09-18T10:29:31.775Z,101501.34
2022-09-18T10:32:02.261Z,101492.53
2022-09-18T10:34:40.945Z,101483.66
2022-09-18T10:37:28.301Z,101473.84
2022-09-18T10:39:59.798Z,101465.72
2022-09-18T10:42:29.991Z,101460.28
2022-09-18T10:45:02.922Z,101456.75
2022-09-18T10:47:36.481Z,101452.22
2022-09-18T10:50:24.135Z,101457.59
2022-09-18T10:52:54.182Z,101454.00
2022-09-18T10:55:26.633Z,101452.25
2022-09-18T10:58:14.201Z,101454.97
2022-09-18T11:01:07.876Z,101446.06
2022-09-18T11:03:57.971Z,101446.03
2022-09-18T11:06:28.484Z,101434.47
2022-09-18T11:09:00.260Z,101445.41
2022-09-18T11:11:34.500Z,101443.72
2022-09-18T11:14:15.574Z,101450.69
2022-09-18T11:16:46.221Z,101449.84
2022-09-18T11:19:34.692Z,101448.16
2022-09-18T11:22:06.848Z,101459.69
2022-09-18T11:24:36.551Z,101458.84
2022-09-18T11:27:22.713Z,101457.88
2022-09-18T11:29:50.009Z,101452.56
2022-09-18T11:32:30.532Z,101462.31
2022-09-18T11:35:02.621Z,101464.06
2022-09-18T11:37:38.129Z,101453.31
2022-09-18T11:40:18.890Z,101464.84
2022-09-18T11:42:48.729Z,101451.44
2022-09-18T11:45:44.566Z,101447.91
2022-09-18T11:48:26.616Z,101447.91
2022-09-18T11:50:59.687Z,101464.06
2022-09-18T11:53:32.251Z,101478.53
2022-09-18T11:56:19.669Z,101469.69
2022-09-18T11:59:00.588Z,101470.69
2022-09-18T12:01:41.262Z,101480.53
2022-09-18T12:04:19.157Z,101484.16
2022-09-18T12:07:04.348Z,101485.28
2022-09-18T12:09:51.244Z,101487.06
2022-09-18T12:12:52.295Z,101486.31
2022-09-18T12:15:26.996Z,101486.25
2022-09-18T12:18:29.584Z,101489.69
2022-09-18T12:21:08.144Z,101481.53
2022-09-18T12:23:35.203Z,101473.56
2022-09-18T12:26:15.928Z,101466.63
2022-09-18T12:29:42.699Z,101470.84
2022-09-18T12:32:50.339Z,101460.91
2022-09-18T12:36:01.259Z,101468.81
2022-09-18T12:39:06.999Z,101475.03
2022-09-18T12:42:17.964Z,101465.34
2022-09-18T12:45:07.301Z,101464.38
2022-09-18T12:47:55.890Z,101469.72
2022-09-18T12:50:50.468Z,101470.78
2022-09-18T12:53:39.375Z,101469.03
2022-09-18T12:56:17.769Z,101485.06
2022-09-18T12:58:56.354Z,101485.13
2022-09-18T13:01:42.243Z,101481.41
2022-09-18T13:04:36.000Z,101478.75
2022-09-18T13:07:14.751Z,101476.09
2022-09-18T13:10:15.501Z,101481.44
2022-09-18T13:12:53.729Z,101478.06
2022-09-18T13:15:56.674Z,101483.72
2022-09-18T13:18:44.402Z,101477.31
2022-09-18T13:21:23.970Z,101475.44
2022-09-18T13:23:53.511Z,101466.41
2022-09-18T13:26:24.431Z,101472.56
2022-09-18T13:28:51.483Z,101468.19
2022-09-18T13:31:35.726Z,101461.06
2022-09-18T13:34:16.865Z,101471.53
2022-09-18T13:36:46.454Z,101467.88
2022-09-18T13:39:37.566Z,101467.03
2022-09-18T13:42:13.293Z,101463.44
2022-09-18T13:44:40.463Z,101461.56
2022-09-18T13:47:16.138Z,101469.75
2022-09-18T13:49:57.692Z,101456.56
2022-09-18T13:52:35.225Z,101469.97
2022-09-18T13:55:14.293Z,101453.03
2022-09-18T13:57:43.471Z,101459.16
2022-09-18T14:00:20.131Z,101464.47
2022-09-18T14:02:51.612Z,101455.06
2022-09-18T14:05:39.846Z,101452.19
2022-09-18T14:08:22.453Z,101444.97
2022-09-18T14:11:13.691Z,101447.66
2022-09-18T14:13:57.691Z,101446.78
2022-09-18T14:16:33.390Z,101445.94
2022-09-18T14:19:38.963Z,101445.97
2022-09-18T14:22:24.623Z,101443.16
2022-09-18T14:24:51.574Z,101441.41
2022-09-18T14:27:36.638Z,101429.94
2022-09-18T14:30:29.257Z,101422.94
2022-09-18T14:33:11.490Z,101423.84
2022-09-18T14:36:02.631Z,101427.59
2022-09-18T14:38:36.015Z,101423.34
2022-09-18T14:41:19.032Z,101419.59
2022-09-18T14:44:03.879Z,101431.06
2022-09-18T14:46:32.777Z,101432.97
2022-09-18T14:49:01.940Z,101442.63
2022-09-18T14:51:40.780Z,101429.19
2022-09-18T14:54:27.569Z,101441.69
2022-09-18T14:57:02.802Z,101441.50
2022-09-18T14:59:31.242Z,101445.06
2022-09-18T15:02:31.375Z,101443.28
2022-09-18T15:05:01.314Z,101435.28
2022-09-18T15:07:28.586Z,101441.47
2022-09-18T15:10:01.385Z,101450.38
2022-09-18T15:12:31.601Z,101437.06
2022-09-18T15:14:59.090Z,101438.69
2022-09-18T15:17:28.474Z,101466.25
2022-09-18T15:20:09.218Z,101460.97
2022-09-18T15:22:36.265Z,101451.09
2022-09-18T15:25:03.772Z,101451.00
2022-09-18T15:27:32.033Z,101451.06
2022-09-18T15:30:20.956Z,101449.59
2022-09-18T15:32:54.427Z,101445.03
2022-09-18T15:35:36.068Z,101435.28
2022-09-18T15:38:07.821Z,101438.72
2022-09-18T15:40:38.392Z,101436.94
2022-09-18T15:43:29.676Z,101424.56
2022-09-18T15:46:23.971Z,101438.84
2022-09-18T15:48:52.010Z,101437.94
2022-09-18T15:51:31.385Z,101430.00
2022-09-18T15:54:14.660Z,101438.84
2022-09-18T15:57:00.038Z,101445.81
2022-09-18T15:59:33.958Z,101434.47
2022-09-18T16:02:07.560Z,101445.94
2022-09-18T16:04:36.086Z,101435.19
2022-09-18T16:07:27.427Z,101444.16
2022-09-18T16:09:55.070Z,101430.00
2022-09-18T16:12:30.873Z,101431.81
2022-09-18T16:15:23.117Z,101426.66
2022-09-18T16:18:22.876Z,101423.00
2022-09-18T16:20:50.849Z,101415.88
2022-09-18T16:23:47.595Z,101412.31
2022-09-18T16:26:35.878Z,101414.94
2022-09-18T16:29:19.878Z,101414.00
2022-09-18T16:31:47.734Z,101405.88
2022-09-18T16:34:28.819Z,101415.59
2022-09-18T16:36:57.228Z,101415.56
2022-09-18T16:39:26.755Z,101412.13
2022-09-18T16:41:54.175Z,101412.06
2022-09-18T16:44:21.184Z,101413.13
2022-09-18T16:47:01.972Z,101436.06
2022-09-18T16:49:43.095Z,101458.09
2022-09-18T16:52:11.371Z,101457.84
2022-09-18T16:54:38.582Z,101457.13
2022-09-18T16:57:18.380Z,101456.44
2022-09-18T16:59:46.136Z,101454.78
2022-09-18T17:02:17.055Z,101467.47
2022-09-18T17:04:44.352Z,101466.38
2022-09-18T17:07:11.431Z,101483.34
2022-09-18T17:09:38.434Z,101480.56
2022-09-18T17:12:05.752Z,101490.28
2022-09-18T17:14:34.576Z,101493.97
2022-09-18T17:17:01.789Z,101484.16
2022-09-18T17:19:28.819Z,101484.13
2022-09-18T17:21:55.928Z,101486.63
2022-09-18T17:24:26.132Z,101483.94
2022-09-18T17:26:54.108Z,101490.91
2022-09-18T17:29:21.591Z,101490.13
2022-09-18T17:31:48.709Z,101493.63
2022-09-18T17:34:16.655Z,101502.38
2022-09-18T17:36:43.746Z,101505.94
2022-09-18T17:39:11.026Z,101506.75
2022-09-18T17:41:39.127Z,101507.63
2022-09-18T17:44:06.675Z,101519.31
2022-09-18T17:46:33.693Z,101509.53
2022-09-18T17:49:01.623Z,101513.88
2022-09-18T17:51:29.415Z,101505.81
2022-09-18T17:54:02.974Z,101512.91
2022-09-18T17:56:31.954Z,101500.41
2022-09-18T17:59:05.687Z,101521.72
2022-09-18T18:01:37.527Z,101525.31
2022-09-18T18:04:08.088Z,101521.78
2022-09-18T18:06:37.077Z,101519.94
2022-09-18T18:09:06.701Z,101520.81
2022-09-18T18:11:34.107Z,101531.44
2022-09-18T18:14:01.207Z,101530.56
2022-09-18T18:16:31.147Z,101530.56
2022-09-18T18:19:01.997Z,101539.44
2022-09-18T18:21:31.288Z,101542.09
2022-09-18T18:24:06.969Z,101560.75
2022-09-18T18:26:34.340Z,101550.97
2022-09-18T18:29:02.394Z,101562.53
2022-09-18T18:31:31.298Z,101571.44
2022-09-18T18:33:58.586Z,101585.66
2022-09-18T18:36:32.202Z,101574.13
2022-09-18T18:39:04.229Z,101574.16
2022-09-18T18:41:33.681Z,101578.66
2022-09-18T18:44:05.571Z,101569.75
2022-09-18T18:46:36.433Z,101581.31
2022-09-18T18:49:10.446Z,101574.25
2022-09-18T18:51:46.021Z,101588.44
2022-09-18T18:54:16.147Z,101589.31
2022-09-18T18:56:45.416Z,101588.50
2022-09-18T18:59:15.709Z,101587.72
2022-09-18T19:01:43.839Z,101597.50
2022-09-18T19:04:15.147Z,101590.38
2022-09-18T19:06:44.729Z,101592.09
2022-09-18T19:09:20.463Z,101601.81
2022-09-18T19:11:51.144Z,101600.91
2022-09-18T19:14:25.173Z,101608.03
2022-09-18T19:16:54.334Z,101608.91
2022-09-18T19:19:24.562Z,101610.66
2022-09-18T19:21:56.330Z,101610.66
2022-09-18T19:24:23.721Z,101613.31
2022-09-18T19:26:51.641Z,101613.31
2022-09-18T19:29:21.528Z,101613.31
2022-09-18T19:31:50.466Z,101618.66
2022-09-18T19:34:20.896Z,101623.97
2022-09-18T19:36:49.086Z,101613.28
2022-09-18T19:39:19.127Z,101614.22
2022-09-18T19:42:01.360Z,101624.88
2022-09-18T19:44:48.782Z,101624.00
2022-09-18T19:47:31.574Z,101625.78
2022-09-18T19:50:01.653Z,101624.03
2022-09-18T19:52:29.724Z,101625.78
2022-09-18T19:54:58.577Z,101626.69
2022-09-18T19:57:28.480Z,101626.69
2022-09-18T19:59:57.229Z,101633.81
2022-09-18T20:02:25.551Z,101639.13
2022-09-18T20:04:52.702Z,101630.25
2022-09-18T20:07:19.983Z,101640.94
2022-09-18T20:09:47.184Z,101633.88
2022-09-18T20:12:14.358Z,101646.31
2022-09-18T20:14:41.663Z,101647.19
2022-09-18T20:17:10.007Z,101644.53
2022-09-18T20:19:37.157Z,101636.50
2022-09-18T20:22:04.876Z,101644.50
2022-09-18T20:24:32.782Z,101652.50
2022-09-18T20:27:00.823Z,101652.56
2022-09-18T20:29:29.034Z,101652.53
2022-09-18T20:31:56.507Z,101647.25
2022-09-18T20:34:25.049Z,101654.34
2022-09-18T20:36:52.541Z,101651.69
2022-09-18T20:39:19.656Z,101670.56
2022-09-18T20:41:47.670Z,101681.25
2022-09-18T20:44:15.461Z,101685.81
2022-09-18T20:46:43.069Z,101674.63
2022-09-18T20:49:13.254Z,101671.03
2022-09-18T20:51:40.202Z,101664.75
2022-09-18T20:54:08.233Z,101663.84
2022-09-18T20:56:42.124Z,101664.59
2022-09-18T20:59:16.018Z,101666.31
2022-09-18T21:01:45.500Z,101666.25
2022-09-18T21:04:19.397Z,101665.31
2022-09-18T21:06:56.084Z,101661.78
2022-09-18T21:09:29.108Z,101666.19
2022-09-18T21:11:59.046Z,101667.94
2022-09-18T21:14:27.472Z,101675.03
2022-09-18T21:16:55.234Z,101674.16
2022-09-18T21:19:26.060Z,101668.84
2022-09-18T21:21:53.128Z,101676.84
2022-09-18T21:24:21.211Z,101674.13
2022-09-18T21:26:50.009Z,101675.03
2022-09-18T21:29:29.894Z,101682.97
2022-09-18T21:32:00.346Z,101681.16
2022-09-18T21:34:30.116Z,101674.00
2022-09-18T21:37:01.609Z,101682.91
2022-09-18T21:39:29.913Z,101676.66
2022-09-18T21:41:58.814Z,101688.25
2022-09-18T21:44:28.931Z,101680.25
2022-09-18T21:46:59.539Z,101690.00
2022-09-18T21:49:29.099Z,101686.47
2022-09-18T21:52:00.821Z,101690.91
2022-09-18T21:54:28.114Z,101698.91
2022-09-18T21:56:56.524Z,101694.47
2022-09-18T21:59:27.138Z,101693.59
2022-09-18T22:01:55.170Z,101692.69
2022-09-18T22:04:28.986Z,101699.78
2022-09-18T22:06:59.000Z,101695.34
2022-09-18T22:09:32.810Z,101699.78
2022-09-18T22:12:01.324Z,101696.19
2022-09-18T22:14:32.273Z,101705.09
2022-09-18T22:17:06.899Z,101707.75
2022-09-18T22:19:38.025Z,101721.06
2022-09-18T22:22:07.860Z,101706.84
2022-09-18T22:24:34.908Z,101709.53
2022-09-18T22:27:08.396Z,101716.66
2022-09-18T22:29:39.463Z,101712.19
2022-09-18T22:32:10.136Z,101719.31
2022-09-18T22:34:37.623Z,101722.91
2022-09-18T22:37:05.096Z,101719.38
2022-09-18T22:39:32.142Z,101728.25
2022-09-18T22:41:59.091Z,101727.41
2022-09-18T22:44:26.385Z,101729.16
2022-09-18T22:46:54.062Z,101729.16
2022-09-18T22:49:23.395Z,101731.88
2022-09-18T22:51:51.873Z,101727.47
2022-09-18T22:54:26.519Z,101724.78
2022-09-18T22:56:55.131Z,101718.53
2022-09-18T22:59:25.785Z,101731.84
2022-09-18T23:01:59.241Z,101725.72
2022-09-18T23:04:29.870Z,101726.66
2022-09-18T23:06:59.271Z,101729.38
2022-09-18T23:09:27.466Z,101723.09
2022-09-18T23:11:55.282Z,101723.91
2022-09-18T23:14:26.139Z,101724.78
2022-09-18T23:16:53.785Z,101728.34
2022-09-18T23:19:28.464Z,101731.84
2022-09-18T23:21:56.205Z,101729.16
2022-09-18T23:24:23.842Z,101738.06
2022-09-18T23:26:55.343Z,101738.06
2022-09-18T23:29:25.522Z,101739.84
2022-09-18T23:31:55.198Z,101740.75
2022-09-18T23:34:27.759Z,101733.59
2022-09-18T23:36:56.194Z,101742.53
2022-09-18T23:39:33.609Z,101737.19
2022-09-18T23:42:02.636Z,101748.72
2022-09-18T23:44:31.260Z,101746.06
2022-09-18T23:46:59.199Z,101749.63
2022-09-18T23:49:26.975Z,101741.63
2022-09-18T23:51:54.984Z,101744.28
2022-09-18T23:54:25.560Z,101744.31
2022-09-18T23:56:54.612Z,101743.41
2022-09-18T23:59:24.188Z,101746.97
